Terminal Aerodrome Forecast
Issued by NWS Houston/Galveston TX

Current Version | Previous Version | Text Only | Print | Product List | Glossary Off
Versions: 1 2 3 4 5 6 7 8 9 10 11 12 13 14 15 16 17 18 19 20 21 22 23 24 25 26 27 28 29 30 31 32 33 34 35 36 37 38 39 40 41 42 43 44 45 46 47 48 49 50

000
FTUS44 KHGX 210523
TAFHOU
TAF
KHOU 210523Z 2106/2206 35005KT P6SM OVC025
     FM210900 VRB03KT P6SM BKN015
     FM211700 11005KT P6SM SCT015 SCT070
     FM212100 12005KT P6SM SCT015 BKN050
     FM220300 14005KT P6SM FEW015 SCT025=

USA.gov is the U.S. government's official web portal to all federal, state and local government web resources and services.